Terminal Aerodrome Forecast
Issued by NWS Shreveport, LA

Home | Current Version | Previous Version | Text Only | Print | Product List | Glossary On
Versions: 1 2 3 4 5 6 7 8 9 10 11 12 13 14 15 16 17 18
427
FTUS44 KSHV 292342
TAFMLU
TAF
KMLU 292342Z 3000/3024 18014G22KT P6SM BKN050
     FM300700 17014G22KT P6SM VCTS OVC040CB
      TEMPO 3009/3013 VRB20G40KT 1SM +TSRA BR OVC020CB
     FM301400 24010KT P6SM VCSH OVC060
     FM301900 24012G20KT P6SM SKC=

USA.gov is the U.S. government's official web portal to all federal, state and local government web resources and services.